Aérodrome :
LOGIN :

S'inscrire | Disclaimer

   EN    FR    IT 

 










Légende :    VFR   VFR Marginal   IFR   IFR Intensif   IFR Très Intensif
Visi : 
Plafond : 
>= 8 km
>= 3000ft
5 à 8 km
1000 à 3000 ft
1500m à 5 km
500 à 1000 ft
800 à 1500m
200 à 500 ft
< 800m
< 200 ft
Symboles :   Orages  Brouillard  Fortes neiges  Fortes précipitations  Vent > 20 kt
SIGMETs :   Divers  Orages  Givrage  Turbulence  Onde Orograph.  Cendres Volcan.






- Altitude de l'aérodrome : 427 ft
- Code IATA : KBP


UKBB - Boryspil'

DERNIER METAR :
  • 121600Z 340010MPS 9999 FEW040CB 21/17 Q1013 R36R/CLRD// TEMPO VRB12G18MPS 2100 -TSRAGR SQ SCT015CB

METARs EXPIRÉS :
  • 121530Z 34008MPS 9999 FEW040CB 22/17 Q1012 R36R/CLRD// TEMPO VRB12G18MPS 2100 -TSRAGR SQ SCT015CB
  • 121500Z 34009MPS 9999 FEW040CB 24/18 Q1012 R36R/CLRD// TEMPO VRB12G18MPS 2100 -TSRAGR SQ SCT015CB
  • 121430Z 34009MPS 9999 FEW040CB 25/18 Q1012 R36R/CLRD// TEMPO VRB12G18MPS 2100 -TSRAGR SQ SCT015CB
  • 121400Z 35008MPS 9999 FEW040CB 26/18 Q1012 R36R/CLRD// TEMPO VRB12G18MPS 2100 -TSRAGR SQ SCT015CB
  • 121330Z 35008MPS CAVOK 29/18 Q1012 R36R/CLRD// TEMPO VRB12G18MPS 1000 TSRAGR SQ BKN015CB

TAF TAF UKBB
Valide du 12 à 12h jusqu'au 13 à 12h UTC


121100Z 1212/1312 32005G11MPS 9999 BKN025 TX30/1212Z TN11/1302Z
TEMPO 1212/1220 VRB12G18MPS 1000 TSRAGR SQ BKN007 BKN015CB
BECMG 1220/1221 34007G12MPS OVC010
TEMPO 1221/1308 36010G15MPS 2100 -SHRA BKN006 SCT015CB
BECMG 1308/1310 35005G10MPS BKN015



MET'MAP, la Météo Aéronautique d'un coup d'oeil ! - Copyright ORBIFLY Décembre 2007 - Disclaimer

ORBIFLY MET'MAP TEAM :

Programmation & Développement : Alexandra Zaïnal
Sur une idée originale de : Baudouin d'Aumeries
Assistance à la programmation : Marc-Olivier Méhu
Soutien technique & logistique : Manuel Goepfert

Contact : metmap@orbifly.com




SOURCES & CREDITS :

   NOAA